Time;durP1;ratioP1;P1;durP2;ratioP2;P2;SDS_P1;SDS_P2;PMS_P1;PMS_P2;Temp;Humidity;BMP_temperature;BMP_pressure;BME280_temperature;BME280_humidity;BME280_pressure;Samples;Min_cycle;Max_cycle;Signal;HPM_P1;HPM_P2
2021/05/10 00:00:35;;;;;;;0.28;0.28;;;19.90;99.90;;;;;;4979336;28;20219;-80
2021/05/10 00:03:00;;;;;;;0.22;0.22;;;19.80;99.90;;;;;;4977075;28;20224;-79
2021/05/10 00:05:26;;;;;;;0.55;0.55;;;19.80;99.90;;;;;;4978436;28;20225;-79
2021/05/10 00:07:52;;;;;;;1.65;1.05;;;20.10;99.90;;;;;;4977995;28;20196;-79
2021/05/10 00:10:18;;;;;;;0.50;0.50;;;20.00;99.90;;;;;;4977434;28;20181;-79
2021/05/10 00:12:43;;;;;;;4.00;1.55;;;20.00;99.90;;;;;;4977785;28;20170;-79
2021/05/10 00:15:10;;;;;;;0.38;0.38;;;19.90;99.90;;;;;;4960646;28;20180;-80
2021/05/10 00:17:36;;;;;;;1.45;0.55;;;20.00;99.90;;;;;;4978017;28;20687;-79
2021/05/10 00:20:03;;;;;;;0.45;0.45;;;19.90;99.90;;;;;;4977792;28;20167;-79
2021/05/10 00:22:28;;;;;;;0.75;0.75;;;19.80;99.90;;;;;;4977534;28;20190;-79
2021/05/10 00:24:56;;;;;;;17.48;0.80;;;19.90;99.90;;;;;;4978203;28;20176;-81
2021/05/10 00:27:21;;;;;;;0.30;0.30;;;20.00;99.90;;;;;;4978524;28;20173;-79
2021/05/10 00:29:47;;;;;;;0.70;0.70;;;20.20;99.90;;;;;;4979177;28;20185;-79
2021/05/10 00:32:13;;;;;;;1.10;0.43;;;20.30;99.90;;;;;;4961033;28;20197;-80
2021/05/10 00:34:38;;;;;;;0.60;0.60;;;20.10;99.90;;;;;;4961362;28;20158;-78
2021/05/10 00:37:04;;;;;;;0.60;0.60;;;20.00;99.90;;;;;;4977763;28;20649;-80
2021/05/10 00:39:29;;;;;;;2.72;1.00;;;19.90;99.90;;;;;;4978093;28;20249;-78
2021/05/10 00:41:56;;;;;;;1.08;0.90;;;20.00;99.90;;;;;;4977708;28;20276;-79
2021/05/10 00:44:22;;;;;;;7.97;0.38;;;20.00;99.90;;;;;;4977458;28;20217;-79
2021/05/10 00:46:49;;;;;;;0.50;0.50;;;20.00;99.90;;;;;;4977427;28;20609;-80
2021/05/10 00:49:14;;;;;;;0.60;0.60;;;19.90;99.90;;;;;;4959861;28;20178;-80
2021/05/10 00:51:40;;;;;;;2.50;0.50;;;19.90;99.90;;;;;;4977715;28;20247;-79
2021/05/10 00:54:06;;;;;;;0.30;0.30;;;19.90;99.90;;;;;;4976287;28;20244;-79
2021/05/10 00:56:31;;;;;;;0.13;0.13;;;19.90;99.90;;;;;;4976071;28;20193;-78
2021/05/10 00:58:57;;;;;;;12.38;0.88;;;19.80;99.90;;;;;;4977489;28;20168;-80
2021/05/10 01:01:23;;;;;;;0.40;0.40;;;19.70;99.90;;;;;;4976660;28;20185;-80
2021/05/10 01:03:53;;;;;;;1.13;1.02;;;19.70;99.90;;;;;;4977523;28;20250;-79
2021/05/10 01:06:18;;;;;;;0.60;0.60;;;19.70;99.90;;;;;;4977908;28;20253;-79
2021/05/10 01:08:44;;;;;;;2.65;0.40;;;19.60;99.90;;;;;;4976916;28;20205;-79
2021/05/10 01:11:10;;;;;;;7.65;0.57;;;19.60;99.90;;;;;;4977011;28;20201;-79
2021/05/10 01:13:36;;;;;;;7.20;0.65;;;19.60;99.90;;;;;;4977028;28;20534;-79
2021/05/10 01:16:01;;;;;;;0.95;0.55;;;19.60;99.90;;;;;;4975627;28;20198;-79
2021/05/10 01:18:27;;;;;;;0.45;0.45;;;19.70;99.90;;;;;;4976572;28;20245;-79
2021/05/10 01:20:55;;;;;;;0.43;0.43;;;19.70;99.90;;;;;;4959195;28;20194;-81
2021/05/10 01:23:21;;;;;;;0.85;0.85;;;19.60;99.90;;;;;;4976452;28;20505;-80
2021/05/10 01:25:47;;;;;;;0.50;0.50;;;19.60;99.90;;;;;;4976872;28;20221;-80
2021/05/10 01:28:13;;;;;;;3.83;1.20;;;19.50;99.90;;;;;;4976246;28;20170;-80
2021/05/10 01:30:43;;;;;;;0.38;0.38;;;19.40;99.90;;;;;;4976134;28;20232;-80
2021/05/10 01:33:09;;;;;;;0.40;0.40;;;19.40;99.90;;;;;;4975063;28;20272;-79
2021/05/10 01:35:40;;;;;;;0.57;0.55;;;19.30;99.90;;;;;;4976192;28;20169;-80
2021/05/10 01:38:06;;;;;;;0.85;0.77;;;19.20;99.90;;;;;;4976199;28;20166;-79
2021/05/10 01:40:33;;;;;;;0.65;0.63;;;19.20;99.90;;;;;;4976206;28;20190;-80
2021/05/10 01:42:59;;;;;;;15.30;0.98;;;19.20;99.90;;;;;;4976660;28;20189;-80
2021/05/10 01:45:24;;;;;;;0.38;0.38;;;19.20;99.90;;;;;;4975795;28;20166;-80
2021/05/10 01:47:59;;;;;;;0.43;0.43;;;19.10;99.90;;;;;;4959081;28;20185;-79
2021/05/10 01:50:25;;;;;;;0.30;0.30;;;19.10;99.90;;;;;;4975972;28;20196;-79
2021/05/10 01:52:51;;;;;;;0.40;0.30;;;19.20;99.90;;;;;;4975704;28;20174;-80
2021/05/10 01:55:16;;;;;;;0.52;0.52;;;19.10;99.90;;;;;;4958292;28;20180;-81
2021/05/10 01:57:52;;;;;;;8.43;1.30;;;19.10;99.90;;;;;;4975722;28;20194;-79
2021/05/10 02:00:22;;;;;;;0.40;0.25;;;19.10;99.90;;;;;;4974508;28;20599;-79
2021/05/10 02:02:47;;;;;;;0.50;0.50;;;19.20;99.90;;;;;;4975781;28;20173;-80
2021/05/10 02:05:13;;;;;;;35.33;1.10;;;19.10;99.90;;;;;;4975011;28;20542;-79
2021/05/10 02:07:45;;;;;;;0.40;0.40;;;18.90;99.90;;;;;;4974920;28;20189;-80
2021/05/10 02:10:14;;;;;;;1.58;0.80;;;19.10;99.90;;;;;;4975600;28;20197;-80
2021/05/10 02:12:40;;;;;;;0.73;0.73;;;19.00;99.90;;;;;;4974215;28;20166;-80
2021/05/10 02:15:11;;;;;;;0.40;0.40;;;19.10;99.90;;;;;;4975552;28;20174;-80
2021/05/10 02:17:37;;;;;;;1.17;1.08;;;19.30;99.90;;;;;;4973952;28;20567;-80
2021/05/10 02:20:05;;;;;;;0.30;0.30;;;19.20;99.90;;;;;;4975021;28;20158;-80
2021/05/10 02:22:31;;;;;;;0.20;0.20;;;19.30;99.90;;;;;;4974840;28;20185;-80
2021/05/10 02:24:56;;;;;;;0.50;0.50;;;19.20;99.90;;;;;;4974780;28;20170;-79
2021/05/10 02:27:22;;;;;;;1.17;0.30;;;19.30;99.90;;;;;;4958289;28;20162;-80
2021/05/10 02:29:47;;;;;;;0.50;0.50;;;19.30;99.90;;;;;;4976051;28;20292;-79
2021/05/10 02:32:13;;;;;;;0.32;0.30;;;19.30;99.90;;;;;;4975906;28;20185;-79
2021/05/10 02:34:39;;;;;;;12.63;1.95;;;19.30;99.90;;;;;;4975699;28;20190;-79
2021/05/10 02:37:04;;;;;;;0.35;0.35;;;19.30;99.90;;;;;;4974318;28;20251;-79
2021/05/10 02:39:30;;;;;;;6.28;1.95;;;19.30;99.90;;;;;;4975035;28;20248;-80
2021/05/10 02:41:56;;;;;;;1.00;0.57;;;19.30;99.90;;;;;;4975714;28;20317;-79
2021/05/10 02:44:21;;;;;;;0.30;0.30;;;19.30;99.90;;;;;;4976234;28;20170;-79
2021/05/10 02:46:47;;;;;;;0.38;0.30;;;19.20;99.90;;;;;;4976193;28;20162;-79
2021/05/10 02:49:13;;;;;;;0.45;0.45;;;19.20;99.90;;;;;;4958900;28;20173;-79
2021/05/10 02:51:39;;;;;;;0.50;0.50;;;19.10;99.90;;;;;;4975529;28;20189;-79
2021/05/10 02:54:04;;;;;;;1.85;0.85;;;19.10;99.90;;;;;;4975597;28;20174;-79
2021/05/10 02:56:30;;;;;;;0.30;0.30;;;19.20;99.90;;;;;;4975138;28;20185;-79
2021/05/10 02:58:57;;;;;;;1.05;0.73;;;19.10;99.90;;;;;;4975069;28;20170;-80
2021/05/10 03:01:22;;;;;;;1.55;0.75;;;19.10;99.90;;;;;;4974521;28;20177;-79
2021/05/10 03:03:48;;;;;;;0.70;0.70;;;19.00;99.90;;;;;;4975368;28;20519;-79
2021/05/10 03:06:14;;;;;;;1.95;0.93;;;18.90;99.90;;;;;;4975735;28;20174;-78
2021/05/10 03:08:39;;;;;;;17.52;0.55;;;18.90;99.90;;;;;;4975239;28;20181;-79
2021/05/10 03:11:05;;;;;;;1.13;1.05;;;18.90;99.90;;;;;;4974483;28;20198;-79
2021/05/10 03:13:31;;;;;;;1.65;0.88;;;18.80;99.90;;;;;;4975974;28;20166;-79
2021/05/10 03:15:57;;;;;;;0.55;0.55;;;18.80;99.90;;;;;;4975123;28;20201;-79
2021/05/10 03:18:23;;;;;;;0.47;0.47;;;18.70;99.90;;;;;;4976740;28;20290;-79
2021/05/10 03:20:49;;;;;;;0.38;0.38;;;18.60;99.90;;;;;;4976346;28;20260;-80
2021/05/10 03:23:15;;;;;;;3.00;2.15;;;18.30;99.90;;;;;;4976248;28;20189;-79
2021/05/10 03:25:40;;;;;;;0.30;0.30;;;18.10;99.90;;;;;;4975882;28;20560;-80
2021/05/10 03:28:07;;;;;;;1.13;1.13;;;18.00;99.90;;;;;;4975224;28;20170;-78
2021/05/10 03:30:33;;;;;;;0.68;0.50;;;17.70;99.90;;;;;;4975605;28;20186;-79
2021/05/10 03:32:58;;;;;;;0.57;0.47;;;17.50;99.90;;;;;;4975459;28;20625;-80
2021/05/10 03:35:24;;;;;;;2.47;0.32;;;17.40;99.90;;;;;;4975197;28;20341;-79
2021/05/10 03:37:50;;;;;;;0.60;0.60;;;17.30;99.90;;;;;;4975110;28;20197;-79
2021/05/10 03:40:16;;;;;;;2.58;1.15;;;17.20;99.90;;;;;;4974995;28;20178;-78
2021/05/10 03:42:43;;;;;;;0.60;0.60;;;17.10;99.90;;;;;;4973564;28;20261;-79
2021/05/10 03:45:11;;;;;;;0.35;0.35;;;17.10;99.90;;;;;;4975025;28;20174;-78
2021/05/10 03:47:40;;;;;;;0.50;0.50;;;17.10;99.90;;;;;;4973738;28;20172;-78
2021/05/10 03:50:18;;;;;;;0.47;0.47;;;17.20;99.90;;;;;;4975331;28;20173;-80
2021/05/10 03:52:45;;;;;;;0.20;0.20;;;17.20;99.90;;;;;;4973762;28;20178;-78
2021/05/10 03:55:14;;;;;;;0.35;0.35;;;17.30;99.90;;;;;;4974987;28;20170;-78
2021/05/10 03:57:40;;;;;;;0.30;0.30;;;17.20;99.90;;;;;;4957844;28;20205;-79
2021/05/10 04:00:07;;;;;;;0.60;0.60;;;17.30;99.90;;;;;;4975156;28;20163;-79
2021/05/10 04:02:33;;;;;;;0.70;0.68;;;17.10;99.90;;;;;;4973183;28;20200;-79
2021/05/10 04:05:30;;;;;;;0.60;0.57;;;17.00;99.90;;;;;;4956509;28;20625;-79
2021/05/10 04:08:14;;;;;;;0.52;0.50;;;16.90;99.90;;;;;;4973765;28;20233;-79
2021/05/10 04:15:53;;;;;;;0.47;0.47;;;17.10;99.90;;;;;;4962917;28;20181;-78
2021/05/10 04:18:20;;;;;;;0.28;0.28;;;17.10;99.90;;;;;;4977423;28;20166;-79
2021/05/10 04:20:46;;;;;;;0.40;0.40;;;17.10;99.90;;;;;;4977143;28;20182;-79
2021/05/10 04:23:16;;;;;;;9.20;1.50;;;16.90;99.90;;;;;;4977216;28;20162;-79
2021/05/10 04:25:42;;;;;;;1.92;0.63;;;17.00;99.90;;;;;;4975944;28;20170;-78
2021/05/10 04:28:08;;;;;;;1.27;0.95;;;17.10;99.90;;;;;;4978561;28;20174;-79
2021/05/10 04:30:34;;;;;;;0.60;0.60;;;17.00;99.90;;;;;;4979064;28;20197;-79
2021/05/10 04:33:00;;;;;;;3.88;1.15;;;17.00;99.90;;;;;;4973570;28;20169;-79
2021/05/10 04:35:25;;;;;;;0.30;0.30;;;17.10;99.90;;;;;;4993421;28;20189;-79
2021/05/10 04:37:51;;;;;;;0.20;0.20;;;17.10;99.90;;;;;;4989710;28;20198;-79
2021/05/10 04:40:18;;;;;;;0.32;0.32;;;16.80;99.90;;;;;;4986095;28;20617;-79
2021/05/10 04:42:44;;;;;;;0.30;0.30;;;16.70;99.90;;;;;;4981439;28;20308;-79
2021/05/10 04:45:10;;;;;;;0.28;0.28;;;16.90;99.90;;;;;;4980824;28;20166;-78
2021/05/10 04:47:39;;;;;;;0.20;0.20;;;17.00;99.90;;;;;;4977984;28;20228;-79
2021/05/10 04:50:06;;;;;;;3.10;0.28;;;17.00;99.90;;;;;;4977475;28;20154;-79
2021/05/10 04:52:33;;;;;;;0.30;0.30;;;16.90;99.90;;;;;;4977221;28;20174;-78
2021/05/10 04:54:58;;;;;;;0.47;0.47;;;16.80;99.90;;;;;;4976948;28;20536;-79
2021/05/10 04:57:24;;;;;;;0.50;0.20;;;16.80;99.90;;;;;;4975928;28;20198;-79
2021/05/10 04:59:49;;;;;;;0.50;0.50;;;16.80;99.90;;;;;;4977070;28;20506;-81
2021/05/10 05:02:15;;;;;;;0.20;0.20;;;16.70;99.90;;;;;;4978057;28;20206;-78
2021/05/10 05:04:40;;;;;;;0.22;0.22;;;16.70;99.90;;;;;;4977343;28;20158;-80
2021/05/10 05:07:06;;;;;;;0.35;0.28;;;16.70;99.90;;;;;;4976644;28;20193;-80
2021/05/10 05:09:32;;;;;;;0.73;0.73;;;16.60;99.90;;;;;;4976781;28;20172;-79
2021/05/10 05:11:57;;;;;;;0.40;0.40;;;16.60;99.90;;;;;;4975567;28;20226;-79
2021/05/10 05:14:23;;;;;;;0.65;0.65;;;16.70;99.90;;;;;;4977155;28;20217;-80
2021/05/10 05:16:48;;;;;;;1.83;0.77;;;16.70;99.90;;;;;;4976119;28;20190;-79
2021/05/10 05:19:14;;;;;;;0.68;0.68;;;16.80;99.90;;;;;;4976222;28;20176;-80
2021/05/10 05:21:39;;;;;;;0.30;0.30;;;16.90;99.90;;;;;;4973917;28;20281;-80
2021/05/10 05:24:05;;;;;;;0.30;0.30;;;16.60;99.90;;;;;;4976061;28;20719;-79
2021/05/10 05:26:31;;;;;;;0.20;0.20;;;16.70;99.90;;;;;;4975930;28;20176;-79
2021/05/10 05:28:56;;;;;;;0.50;0.50;;;16.70;99.90;;;;;;4974876;28;20185;-79
2021/05/10 05:31:22;;;;;;;0.35;0.35;;;16.70;99.90;;;;;;4975782;28;20696;-80
2021/05/10 05:33:48;;;;;;;0.20;0.20;;;16.50;99.90;;;;;;4974021;28;20177;-80
2021/05/10 05:36:13;;;;;;;0.20;0.20;;;16.40;99.90;;;;;;4974219;28;20197;-79
2021/05/10 05:38:40;;;;;;;0.38;0.32;;;16.40;99.90;;;;;;4975524;28;20252;-79
2021/05/10 05:41:10;;;;;;;0.30;0.30;;;16.40;99.90;;;;;;4974164;28;20228;-77
2021/05/10 05:43:35;;;;;;;0.40;0.40;;;16.40;99.90;;;;;;4975767;28;20173;-79
2021/05/10 05:46:03;;;;;;;0.10;0.10;;;16.30;99.90;;;;;;4976117;28;20170;-79
2021/05/10 05:48:28;;;;;;;0.20;0.20;;;16.30;99.90;;;;;;4975444;28;20166;-78
2021/05/10 05:50:54;;;;;;;0.25;0.25;;;16.40;99.90;;;;;;4975605;28;20216;-77
2021/05/10 05:53:21;;;;;;;0.50;0.50;;;16.30;99.90;;;;;;4975485;28;20170;-78
2021/05/10 05:55:47;;;;;;;0.20;0.20;;;16.30;99.90;;;;;;4975222;28;20173;-79
2021/05/10 05:58:13;;;;;;;0.32;0.30;;;16.30;99.90;;;;;;4975218;28;20174;-79
2021/05/10 06:00:38;;;;;;;0.10;0.10;;;16.20;99.90;;;;;;4974682;28;20186;-79
2021/05/10 06:03:04;;;;;;;0.38;0.38;;;16.20;99.90;;;;;;4957852;28;20174;-77
2021/05/10 06:05:30;;;;;;;0.30;0.30;;;16.10;99.90;;;;;;4975065;28;20206;-77
2021/05/10 06:07:55;;;;;;;0.50;0.50;;;16.00;99.90;;;;;;4975482;28;20201;-77
2021/05/10 06:10:24;;;;;;;0.75;0.70;;;16.20;99.90;;;;;;4975101;28;20227;-79
2021/05/10 06:12:52;;;;;;;0.10;0.10;;;16.30;99.90;;;;;;4973834;28;20178;-78
2021/05/10 06:15:19;;;;;;;0.57;0.45;;;16.60;99.90;;;;;;4975082;28;20193;-79
2021/05/10 06:17:45;;;;;;;0.75;0.47;;;16.70;99.90;;;;;;4973578;28;20210;-78
2021/05/10 06:20:11;;;;;;;0.50;0.50;;;16.50;99.90;;;;;;4975096;28;20155;-78
2021/05/10 06:22:39;;;;;;;10.52;2.05;;;16.20;99.90;;;;;;4974718;28;20178;-79
2021/05/10 06:25:09;;;;;;;0.30;0.30;;;16.00;99.90;;;;;;4974941;28;20170;-78
2021/05/10 06:27:35;;;;;;;8.25;2.85;;;16.20;99.90;;;;;;4974908;28;20165;-77
2021/05/10 06:30:00;;;;;;;1.00;0.98;;;16.20;99.90;;;;;;4974761;28;20166;-78
2021/05/10 06:32:26;;;;;;;0.93;0.93;;;16.20;99.90;;;;;;4974555;28;20552;-78
2021/05/10 06:34:52;;;;;;;39.30;4.68;;;16.30;99.90;;;;;;4974704;28;20170;-78
2021/05/10 06:37:20;;;;;;;0.70;0.70;;;16.60;99.90;;;;;;4974589;28;20676;-79
2021/05/10 06:39:47;;;;;;;4.45;0.35;;;16.90;99.90;;;;;;4974938;28;20168;-79
2021/05/10 06:42:14;;;;;;;0.20;0.20;;;17.00;99.90;;;;;;4973459;28;20229;-78
2021/05/10 06:44:40;;;;;;;1.90;1.45;;;17.10;99.90;;;;;;4974836;28;20578;-81
2021/05/10 06:47:07;;;;;;;3.47;1.20;;;17.20;99.90;;;;;;4974614;28;20177;-78
2021/05/10 06:49:33;;;;;;;2.78;1.38;;;17.20;99.90;;;;;;4974590;28;20589;-78
2021/05/10 06:51:58;;;;;;;0.38;0.38;;;17.30;99.90;;;;;;4973898;28;20204;-77
2021/05/10 06:54:24;;;;;;;2.25;1.08;;;17.60;99.90;;;;;;4973064;28;20264;-77
2021/05/10 06:56:51;;;;;;;0.50;0.50;;;17.70;99.90;;;;;;4974671;28;20646;-79
2021/05/10 06:59:17;;;;;;;0.80;0.77;;;18.00;99.90;;;;;;4974672;28;20577;-78
2021/05/10 07:01:42;;;;;;;1.00;0.90;;;18.00;99.90;;;;;;4974301;28;20235;-78
2021/05/10 07:04:08;;;;;;;8.57;0.70;;;18.10;99.90;;;;;;4976476;28;20193;-77
2021/05/10 07:06:33;;;;;;;0.60;0.60;;;18.10;99.90;;;;;;4960755;28;20165;-78
2021/05/10 07:08:59;;;;;;;1.55;1.20;;;18.10;99.90;;;;;;4976979;28;20632;-79
2021/05/10 07:11:25;;;;;;;1.02;0.93;;;18.10;99.90;;;;;;4974647;28;20280;-78
2021/05/10 07:13:51;;;;;;;0.30;0.30;;;18.10;99.90;;;;;;4974356;28;20177;-78
2021/05/10 07:16:16;;;;;;;0.28;0.28;;;18.30;99.90;;;;;;4958239;28;20200;-79
2021/05/10 07:18:42;;;;;;;0.40;0.40;;;18.70;99.90;;;;;;4974176;28;20645;-79
2021/05/10 07:21:07;;;;;;;5.30;0.38;;;19.20;99.90;;;;;;4974528;28;20217;-80
2021/05/10 07:23:35;;;;;;;17.88;0.93;;;19.80;99.90;;;;;;4973264;28;20182;-80
2021/05/10 07:26:00;;;;;;;2.33;1.55;;;19.40;99.90;;;;;;4976383;28;20599;-80
2021/05/10 07:28:26;;;;;;;0.93;0.93;;;19.40;99.90;;;;;;4959469;28;20170;-79
2021/05/10 07:30:51;;;;;;;3.17;1.40;;;19.30;99.90;;;;;;4979816;28;20190;-80
2021/05/10 07:33:17;;;;;;;2.75;1.98;;;19.30;99.90;;;;;;4974343;28;20220;-80
2021/05/10 07:35:43;;;;;;;0.32;0.32;;;19.50;99.90;;;;;;4972774;28;20170;-82
2021/05/10 07:38:09;;;;;;;0.30;0.30;;;19.30;99.90;;;;;;4985603;28;20205;-80
2021/05/10 07:40:35;;;;;;;57.80;6.15;;;19.30;99.90;;;;;;4962903;28;20192;-80
2021/05/10 07:43:01;;;;;;;28.67;2.08;;;18.90;99.90;;;;;;4990333;28;20221;-80
2021/05/10 07:45:28;;;;;;;2.22;2.00;;;19.00;99.90;;;;;;4960282;28;20221;-80
2021/05/10 07:47:54;;;;;;;0.85;0.85;;;18.90;99.90;;;;;;4974104;28;20170;-80
2021/05/10 07:50:21;;;;;;;0.45;0.40;;;18.50;99.90;;;;;;4979256;28;20165;-83
2021/05/10 07:52:48;;;;;;;1.00;0.90;;;18.60;99.90;;;;;;4996885;28;20173;-78
2021/05/10 07:55:13;;;;;;;1.85;0.95;;;18.40;99.90;;;;;;4996854;28;20161;-80
2021/05/10 07:57:39;;;;;;;8.30;2.90;;;18.50;99.90;;;;;;4996883;28;20551;-81
2021/05/10 08:00:08;;;;;;;2.90;1.55;;;18.60;99.90;;;;;;4979218;28;20208;-81
2021/05/10 08:02:36;;;;;;;0.65;0.63;;;18.50;99.90;;;;;;4996714;28;20264;-81
2021/05/10 08:05:02;;;;;;;18.80;0.57;;;18.40;99.90;;;;;;4996878;28;20240;-80
2021/05/10 08:07:28;;;;;;;4.60;2.38;;;18.30;99.90;;;;;;4965314;28;20273;-80
2021/05/10 08:09:53;;;;;;;0.60;0.60;;;18.20;99.90;;;;;;4976914;28;20162;-80
2021/05/10 08:12:19;;;;;;;0.22;0.22;;;18.20;99.90;;;;;;4977178;28;20197;-79
2021/05/10 08:14:45;;;;;;;0.28;0.28;;;18.20;99.90;;;;;;4977188;28;20177;-79
2021/05/10 08:17:10;;;;;;;0.50;0.50;;;18.30;99.90;;;;;;4959599;28;20669;-79
2021/05/10 08:19:36;;;;;;;0.43;0.43;;;18.30;99.90;;;;;;4996824;28;20223;-79
2021/05/10 08:22:03;;;;;;;0.52;0.43;;;18.50;99.90;;;;;;4985497;28;20197;-79
2021/05/10 08:24:29;;;;;;;0.22;0.22;;;18.40;99.90;;;;;;4976975;28;20285;-80
2021/05/10 08:26:55;;;;;;;0.60;0.60;;;18.30;99.90;;;;;;4964873;28;20257;-81
2021/05/10 08:29:21;;;;;;;20.42;0.35;;;18.20;99.90;;;;;;4996364;28;20169;-80
2021/05/10 08:31:47;;;;;;;0.40;0.40;;;18.30;99.90;;;;;;4996281;28;20193;-80
2021/05/10 08:34:13;;;;;;;0.30;0.30;;;18.30;99.90;;;;;;4978905;28;20797;-80
2021/05/10 08:36:39;;;;;;;0.68;0.68;;;18.40;99.90;;;;;;4989737;28;20280;-80
2021/05/10 08:39:08;;;;;;;0.32;0.32;;;18.50;99.90;;;;;;4976755;28;20244;-81
2021/05/10 08:41:38;;;;;;;11.13;0.35;;;18.50;99.90;;;;;;4976657;28;20582;-80
2021/05/10 08:44:08;;;;;;;0.20;0.20;;;18.50;99.90;;;;;;4976246;28;20253;-80
2021/05/10 08:46:36;;;;;;;0.52;0.52;;;18.30;99.90;;;;;;4976866;28;20162;-85
2021/05/10 08:49:02;;;;;;;0.40;0.40;;;18.40;99.90;;;;;;4976384;28;20193;-81
2021/05/10 08:51:31;;;;;;;1.05;0.95;;;18.50;99.90;;;;;;4976518;28;20588;-81
2021/05/10 08:53:57;;;;;;;0.20;0.20;;;18.40;99.90;;;;;;4976974;28;20218;-80
2021/05/10 08:56:24;;;;;;;0.40;0.40;;;18.50;99.90;;;;;;4957665;28;20198;-82
2021/05/10 08:58:49;;;;;;;0.30;0.30;;;18.70;99.90;;;;;;4976090;28;20209;-81
2021/05/10 09:01:16;;;;;;;0.47;0.47;;;18.50;99.90;;;;;;4975187;28;20221;-81
2021/05/10 09:03:47;;;;;;;1.10;0.60;;;18.60;99.90;;;;;;4976458;28;20241;-80
2021/05/10 09:06:14;;;;;;;1.42;0.50;;;18.50;99.90;;;;;;4976188;28;20162;-81
2021/05/10 09:08:45;;;;;;;0.47;0.35;;;18.40;99.90;;;;;;4959044;28;20170;-80
2021/05/10 09:11:13;;;;;;;0.30;0.30;;;18.30;99.90;;;;;;4977530;28;20194;-80
2021/05/10 09:13:40;;;;;;;0.43;0.40;;;18.60;99.90;;;;;;4976545;28;20185;-79
2021/05/10 09:16:06;;;;;;;0.63;0.63;;;18.80;99.90;;;;;;4975955;28;20205;-80
2021/05/10 09:18:32;;;;;;;0.60;0.60;;;19.10;99.90;;;;;;4974946;28;20261;-80
2021/05/10 09:21:16;;;;;;;17.05;2.50;;;19.20;99.90;;;;;;4975552;28;20202;-80
2021/05/10 09:23:42;;;;;;;0.98;0.85;;;19.50;99.90;;;;;;4976008;28;20307;-80
2021/05/10 09:26:11;;;;;;;2.50;1.40;;;19.80;99.90;;;;;;4975746;28;20166;-80
2021/05/10 09:28:42;;;;;;;16.55;3.28;;;19.80;99.90;;;;;;4976654;28;20174;-80
2021/05/10 09:31:10;;;;;;;0.82;0.70;;;19.50;99.90;;;;;;4976195;28;20221;-81
2021/05/10 09:33:47;;;;;;;1.65;0.30;;;19.50;99.90;;;;;;4967003;28;20197;-79
2021/05/10 09:36:32;;;;;;;0.45;0.28;;;19.70;99.90;;;;;;4971166;28;20197;-80
2021/05/10 09:39:02;;;;;;;6.50;0.38;;;19.80;99.90;;;;;;4988086;28;20493;-79
2021/05/10 09:41:28;;;;;;;1.50;0.98;;;20.00;99.90;;;;;;4996252;28;20233;-83
2021/05/10 09:44:07;;;;;;;4.50;1.30;;;20.20;99.90;;;;;;4995110;28;20173;-81
2021/05/10 09:46:41;;;;;;;2.25;0.52;;;20.60;99.90;;;;;;4976947;28;20621;-83
2021/05/10 09:49:07;;;;;;;0.93;0.43;;;20.50;99.90;;;;;;4977374;28;20580;-81
2021/05/10 09:51:34;;;;;;;2.63;0.30;;;20.20;99.90;;;;;;4986477;28;20246;-81
2021/05/10 09:54:01;;;;;;;2.20;1.08;;;20.20;99.90;;;;;;4976346;28;20536;-82
2021/05/10 09:56:32;;;;;;;0.73;0.47;;;20.20;99.90;;;;;;4974371;28;20194;-82
2021/05/10 09:59:13;;;;;;;1.05;0.90;;;20.40;99.90;;;;;;4976362;28;20170;-81
2021/05/10 10:01:48;;;;;;;12.63;1.20;;;20.60;99.90;;;;;;4975230;28;20178;-79
2021/05/10 10:04:15;;;;;;;0.38;0.38;;;21.10;99.90;;;;;;4975229;28;20217;-78
2021/05/10 10:06:41;;;;;;;24.38;2.35;;;20.90;99.90;;;;;;4973892;28;20176;-76
2021/05/10 10:09:07;;;;;;;28.42;8.75;;;20.70;99.90;;;;;;4974739;28;20170;-76
2021/05/10 10:11:33;;;;;;;20.13;1.30;;;20.30;99.90;;;;;;4974800;28;20614;-76
2021/05/10 10:14:00;;;;;;;0.30;0.30;;;20.20;99.90;;;;;;4974153;28;20638;-76
2021/05/10 10:16:27;;;;;;;6.32;0.70;;;20.10;99.90;;;;;;4974561;28;20194;-79
2021/05/10 10:18:57;;;;;;;0.25;0.25;;;20.00;99.90;;;;;;4974841;28;20257;-77
2021/05/10 10:21:23;;;;;;;0.20;0.20;;;20.10;99.90;;;;;;4990508;28;20221;-80
2021/05/10 10:23:57;;;;;;;0.50;0.45;;;20.20;99.90;;;;;;4994352;28;20162;-77
2021/05/10 10:26:26;;;;;;;0.28;0.28;;;20.20;99.90;;;;;;4995368;28;20165;-79
2021/05/10 10:28:52;;;;;;;0.35;0.35;;;19.90;99.90;;;;;;4994768;28;20196;-78
2021/05/10 10:31:24;;;;;;;1.65;0.47;;;19.70;99.90;;;;;;5007954;28;20177;-77
2021/05/10 10:33:54;;;;;;;0.45;0.28;;;19.80;99.90;;;;;;5015488;28;20164;-79
2021/05/10 10:36:27;;;;;;;0.40;0.40;;;19.80;99.90;;;;;;5003600;28;20212;-77
2021/05/10 10:39:23;;;;;;;0.10;0.10;;;19.80;99.90;;;;;;4994226;28;20165;-79
2021/05/10 10:42:12;;;;;;;5.78;0.30;;;19.90;99.90;;;;;;4993573;28;20231;-79
2021/05/10 10:44:51;;;;;;;0.22;0.22;;;20.20;99.90;;;;;;4993821;28;20255;-77
2021/05/10 10:47:47;;;;;;;0.38;0.38;;;19.90;99.90;;;;;;4993963;28;20601;-78
2021/05/10 10:50:15;;;;;;;0.50;0.50;;;19.70;99.90;;;;;;4993752;28;20204;-80
2021/05/10 10:52:59;;;;;;;6.78;0.30;;;19.80;99.90;;;;;;4976222;28;20481;-82
2021/05/10 10:55:33;;;;;;;1.52;1.45;;;19.80;99.90;;;;;;4993899;28;20583;-83
2021/05/10 10:58:21;;;;;;;0.10;0.10;;;19.90;99.90;;;;;;4976921;28;20203;-83
2021/05/10 11:00:56;;;;;;;0.20;0.20;;;19.90;99.90;;;;;;4994331;28;20239;-84
2021/05/10 11:03:28;;;;;;;1.13;0.68;;;19.90;99.90;;;;;;4994235;28;20736;-84
2021/05/10 11:05:55;;;;;;;0.10;0.10;;;19.70;99.90;;;;;;4994380;28;20181;-82
2021/05/10 11:08:39;;;;;;;0.30;0.20;;;19.60;99.90;;;;;;4994067;28;20264;-82
2021/05/10 11:11:04;;;;;;;0.10;0.10;;;19.70;99.90;;;;;;4993825;28;20216;-81
2021/05/10 11:13:38;;;;;;;1.75;0.75;;;19.90;99.90;;;;;;4993609;28;20198;-81
2021/05/10 11:16:14;;;;;;;13.18;0.98;;;20.10;99.90;;;;;;4993234;28;20180;-82
2021/05/10 11:18:53;;;;;;;0.50;0.38;;;20.20;99.90;;;;;;4977151;28;20177;-81
2021/05/10 11:21:21;;;;;;;0.05;0.05;;;20.10;99.90;;;;;;4997590;28;20191;-79
2021/05/10 11:23:52;;;;;;;0.47;0.45;;;20.00;99.90;;;;;;4997788;28;20157;-79
2021/05/10 11:26:52;;;;;;;2.17;0.20;;;20.00;99.90;;;;;;4997367;28;20637;-79
2021/05/10 11:29:27;;;;;;;7.03;0.65;;;19.90;99.90;;;;;;4997139;28;20256;-79
2021/05/10 11:31:53;;;;;;;0.73;0.73;;;19.60;99.90;;;;;;4997309;28;20644;-78
2021/05/10 11:34:28;;;;;;;0.60;0.60;;;19.80;99.90;;;;;;4997447;28;20154;-80
2021/05/10 11:36:56;;;;;;;11.63;3.25;;;19.90;99.90;;;;;;4979784;28;20548;-80
2021/05/10 11:39:24;;;;;;;25.60;2.10;;;20.00;99.90;;;;;;4979707;28;20184;-79
2021/05/10 11:41:56;;;;;;;1.20;1.02;;;20.20;99.90;;;;;;4997155;28;20224;-80
2021/05/10 11:44:29;;;;;;;2.95;0.80;;;20.30;99.90;;;;;;4997323;28;20165;-78
2021/05/10 11:46:59;;;;;;;15.90;1.17;;;20.30;99.90;;;;;;4979844;28;20169;-79
2021/05/10 11:49:28;;;;;;;1.08;0.82;;;20.50;99.90;;;;;;4997577;28;20164;-80
2021/05/10 11:51:55;;;;;;;2.85;1.67;;;20.60;99.90;;;;;;4996844;28;20220;-79
2021/05/10 11:54:22;;;;;;;0.68;0.68;;;20.80;99.90;;;;;;4997221;28;20525;-79
2021/05/10 11:56:50;;;;;;;3.75;1.77;;;20.70;99.90;;;;;;4996848;28;20615;-80
2021/05/10 12:01:49;;;;;;;2.22;1.75;;;20.70;99.90;;;;;;4997134;28;20563;-81
2021/05/10 12:04:42;;;;;;;38.88;3.35;;;20.60;99.90;;;;;;4997795;28;20212;-79
2021/05/10 12:07:09;;;;;;;2.22;1.02;;;20.60;99.90;;;;;;4995012;28;20185;-79
2021/05/10 12:09:45;;;;;;;46.55;5.78;;;20.60;99.90;;;;;;5003244;28;20285;-79
2021/05/10 12:12:14;;;;;;;8.13;2.80;;;20.60;99.90;;;;;;4979432;28;20219;-79
2021/05/10 12:14:48;;;;;;;2.90;1.55;;;20.90;99.90;;;;;;4996769;28;20181;-79
2021/05/10 12:17:15;;;;;;;0.73;0.73;;;20.80;99.90;;;;;;4996668;28;20229;-80
2021/05/10 12:20:05;;;;;;;0.43;0.30;;;20.90;99.90;;;;;;4996605;28;20172;-80
2021/05/10 12:22:37;;;;;;;0.60;0.60;;;20.60;99.90;;;;;;4996526;28;20180;-80
2021/05/10 12:25:12;;;;;;;1.50;0.43;;;20.70;99.90;;;;;;4979430;28;20638;-79
2021/05/10 12:27:37;;;;;;;0.22;0.22;;;20.50;99.90;;;;;;4996762;28;20211;-80
2021/05/10 12:30:11;;;;;;;1.35;0.55;;;20.70;99.90;;;;;;4996018;28;20173;-80
2021/05/10 12:32:38;;;;;;;1.38;0.60;;;21.00;99.90;;;;;;4996490;28;20169;-80
2021/05/10 12:35:04;;;;;;;12.95;3.33;;;20.70;99.90;;;;;;4996380;28;20686;-80
2021/05/10 12:37:29;;;;;;;17.10;4.18;;;20.50;99.90;;;;;;4996191;28;20255;-80
2021/05/10 12:40:07;;;;;;;12.80;3.95;;;20.40;99.90;;;;;;4996247;28;20173;-80
2021/05/10 12:42:33;;;;;;;1.85;0.93;;;20.70;99.90;;;;;;4996015;28;20220;-80
2021/05/10 12:45:01;;;;;;;0.70;0.70;;;20.90;99.90;;;;;;4996414;28;20585;-80
2021/05/10 12:47:44;;;;;;;4.20;2.50;;;21.10;99.90;;;;;;4996236;28;20181;-80
2021/05/10 12:50:29;;;;;;;9.20;0.60;;;21.20;99.90;;;;;;4978486;28;20188;-79
2021/05/10 12:52:55;;;;;;;0.85;0.70;;;21.50;99.90;;;;;;4995832;28;20177;-80
2021/05/10 12:55:22;;;;;;;14.18;1.60;;;21.30;99.90;;;;;;4995889;28;20251;-80
2021/05/10 12:57:50;;;;;;;0.30;0.30;;;21.40;99.90;;;;;;4996050;28;20354;-80